Des Lacs, ND

3:54 PM CDT on June 02, 2015 (GMT -0500)
Garrison | | Change Station
CLOSE
Current Station
Airport
Location: Garrison,
Elevation: 1909 ft
Nearby Weather Stations

Elev 1909 ft 47.65 °N, 101.44 °W | Updated 1 hour ago

Overcast
Overcast
72 °F
Feels Like 72 °F
N
9
Wind Variable Wind from NE
Gusts 19 mph

Today
High -- | Low -- °F
--% Chance of Precip.
Yesterday
High -- | Low -- °F
Precip. -- in
5:49 AM 9:39 PM
Full, 100% visible
Pressure 29.75 in
Visibility -9999.0 miles
Clouds
Dew Point 61 °F
Humidity 68%
Rainfall 0.11 in
Snow Depth Not available.
UV Not available.
Pollen .80 out of 12
Air Quality Not available.
Flu Activity Sporadic
METAR KN60 021952Z AUTO 04008KT 22/16 A2977 RMK AO1 SLP073 T02220161

More Conditions Fewer Conditions

Pressure 29.75 in
Visibility -9999.0 miles
Clouds
Dew Point 61 °F
Humidity 68%
Rainfall 0.11 in
Snow Depth Not available.
UV Not available.
Pollen .80 out of 12
Air Quality Not available.
Flu Activity Sporadic
METAR KN60 021952Z AUTO 04008KT 22/16 A2977 RMK AO1 SLP073 T02220161

More Conditions Fewer Conditions

10-Day Weather Forecast

×

Almanac

Astronomy

Jun. 02, 2015 Rise Set
Actual Time
Civil Twilight
Nautical Twilight
Astronomical Twilight
Moon
Length of Visible Light
Length of Day
Tomorrow will be .
, % of the Moon is Illuminated

Today's Extremes

State Highs State Lows

Community

WunderPhotos

Upload Photos

1,826,022 photos uploaded!

WunderBlogs® & News

Nearby

Air Quality

  Air Quality AQ Index Pollutant
Not available.

Snow Depth

Station Depth Elevation

Earthquake Activity

City Distance Mag. Time & Date
Minimum magnitude displayed is 2.5.

Coastal Water Temperatures

Place Temperature

Stations

Nearby Weather Stations

Station Location Temp. Windchill Dew Point Humidity Wind Precip. Elev Updated Type